Meraio — V3YH5 — position and weather

sailwx.info

Track history (hours):
 
Tides and Currents Weather Stations Pressure Air Temp Water Temp Dewpoint Dewpoint Depression Visibility Wind Speed Wind Dir Waves Ship Positions

Meraio

Last reported at 2018-Feb-05 17:22 UTC. Time now 2018-Feb-20 12:03 UTC.
Position N 37°10' E 005°16'.
Warning: this ship's position is 14 days out of date.

Length 167 m; draft 9.5 m.

Type: Cargo ship. MMSI: 312026000.

Date/timePositionNaut miles runAvg speedWind from/ knotsBaromVisibWave heightAir tempDewpointWater temp
2018-Feb-05 17:22N 37°10' E 005°16'1611.6
2018-Feb-05 16:00N 37°08' E 004°57'611.9
2018-Feb-05 15:29N 37°07' E 004°49'48311.4
2018-Feb-03 21:11N 36°02' W 005°07'313.3
2018-Feb-03 21:00N 36°03' W 005°10'612.0
2018-Feb-03 20:30N 36°04' W 005°17'5 8.5
2018-Feb-03 19:56N 36°07' W 005°22'1 0.1
2018-Feb-03 13:50N 36°07' W 005°22'1 4.2
2018-Feb-03 13:30N 36°06' W 005°22'1 0.9
2018-Feb-03 12:51N 36°05' W 005°23'3 3.3
2018-Feb-03 12:02N 36°03' W 005°21'0 3.2
2018-Feb-03 11:53N 36°03' W 005°22'0 0.9
2018-Feb-03 11:30N 36°03' W 005°21'1 1.7
2018-Feb-03 10:57N 36°02' W 005°20'3 6.3
2018-Feb-03 10:30N 35°60' W 005°22'714.3
2018-Feb-03 10:00N 35°57' W 005°30'  
Track history (hours):
 
Tides and Currents Weather Stations Pressure Air Temp Water Temp Dewpoint Dewpoint Depression Visibility Wind Speed Wind Dir Waves Ship Positions

Meraio

Last reported at 2018-Feb-05 17:22 UTC. Time now 2018-Feb-20 12:03 UTC.
Position N 37°10' E 005°16'.
Warning: this ship's position is 14 days out of date.

Length 167 m; draft 9.5 m.

Type: Cargo ship. MMSI: 312026000.

Date/timePositionNaut miles runAvg speedWind from/ knotsBaromVisibWave heightAir tempDewpointWater temp
2018-Feb-05 17:22N 37°10' E 005°16'1611.6
2018-Feb-05 16:00N 37°08' E 004°57'611.9
2018-Feb-05 15:29N 37°07' E 004°49'48311.4
2018-Feb-03 21:11N 36°02' W 005°07'313.3
2018-Feb-03 21:00N 36°03' W 005°10'612.0
2018-Feb-03 20:30N 36°04' W 005°17'5 8.5
2018-Feb-03 19:56N 36°07' W 005°22'1 0.1
2018-Feb-03 13:50N 36°07' W 005°22'1 4.2
2018-Feb-03 13:30N 36°06' W 005°22'1 0.9
2018-Feb-03 12:51N 36°05' W 005°23'3 3.3
2018-Feb-03 12:02N 36°03' W 005°21'0 3.2
2018-Feb-03 11:53N 36°03' W 005°22'0 0.9
2018-Feb-03 11:30N 36°03' W 005°21'1 1.7
2018-Feb-03 10:57N 36°02' W 005°20'3 6.3
2018-Feb-03 10:30N 35°60' W 005°22'714.3
2018-Feb-03 10:00N 35°57' W 005°30'  

Dump ship's entire track history